ADDS METAR Data

Data at: 2045 UTC 15 Aug 2018

METAR for:KLGA (New York/La Guardia, NY, US)
Text:KLGA 151951Z 29013G17KT 10SM SCT055 SCT250 32/16 A2989 RMK AO2 SLP123 T03220156
Temperature: 32.2°C ( 90°F)
Dewpoint: 15.6°C ( 60°F) [RH = 37%]
Pressure (altimeter):29.89 inches Hg (1012.3 mb) [Sea level pressure: 1012.3 mb]
Winds:from the WNW (290 degrees) at 15 MPH (13 knots; 6.7 m/s) gusting to 20 MPH (17 knots; 8.7 m/s)
Visibility:10 or more sm (16+ km)
Ceiling:at least 12,000 feet AGL
Clouds: scattered clouds at 5500 feet AGL, scattered clouds at 25000 feet AGL